sensor_id;sensor_type;location;lat;lon;timestamp;P1;durP1;ratioP1;P2;durP2;ratioP2
23270;SDS011;11804;51.118;17.058;2023-11-21T00:00:05;4.10;;;1.67;;
23270;SDS011;11804;51.118;17.058;2023-11-21T00:02:36;4.90;;;1.70;;
23270;SDS011;11804;51.118;17.058;2023-11-21T00:05:05;2.87;;;1.77;;
23270;SDS011;11804;51.118;17.058;2023-11-21T00:07:38;4.20;;;2.13;;
23270;SDS011;11804;51.118;17.058;2023-11-21T00:10:06;3.63;;;2.03;;
23270;SDS011;11804;51.118;17.058;2023-11-21T00:12:34;2.07;;;1.17;;
23270;SDS011;11804;51.118;17.058;2023-11-21T00:15:02;5.17;;;2.33;;
23270;SDS011;11804;51.118;17.058;2023-11-21T00:17:40;4.77;;;1.80;;
23270;SDS011;11804;51.118;17.058;2023-11-21T00:20:08;5.10;;;1.73;;
23270;SDS011;11804;51.118;17.058;2023-11-21T00:22:38;4.80;;;1.73;;
23270;SDS011;11804;51.118;17.058;2023-11-21T00:25:06;2.90;;;1.67;;
23270;SDS011;11804;51.118;17.058;2023-11-21T00:27:37;4.90;;;1.57;;
23270;SDS011;11804;51.118;17.058;2023-11-21T00:30:05;2.30;;;1.50;;
23270;SDS011;11804;51.118;17.058;2023-11-21T00:32:37;3.73;;;1.67;;
23270;SDS011;11804;51.118;17.058;2023-11-21T00:35:06;2.70;;;1.43;;
23270;SDS011;11804;51.118;17.058;2023-11-21T00:37:34;3.23;;;1.53;;
23270;SDS011;11804;51.118;17.058;2023-11-21T00:40:01;2.03;;;1.40;;
23270;SDS011;11804;51.118;17.058;2023-11-21T00:42:32;2.10;;;1.30;;
23270;SDS011;11804;51.118;17.058;2023-11-21T00:45:00;3.13;;;1.67;;
23270;SDS011;11804;51.118;17.058;2023-11-21T00:47:27;2.93;;;1.77;;
23270;SDS011;11804;51.118;17.058;2023-11-21T00:49:55;3.47;;;1.90;;
23270;SDS011;11804;51.118;17.058;2023-11-21T00:52:22;4.70;;;1.57;;
23270;SDS011;11804;51.118;17.058;2023-11-21T00:54:50;2.03;;;1.33;;
23270;SDS011;11804;51.118;17.058;2023-11-21T00:57:17;3.03;;;1.50;;
23270;SDS011;11804;51.118;17.058;2023-11-21T00:59:45;3.17;;;1.80;;
23270;SDS011;11804;51.118;17.058;2023-11-21T01:02:13;8.10;;;2.27;;
23270;SDS011;11804;51.118;17.058;2023-11-21T01:04:41;4.70;;;1.67;;
23270;SDS011;11804;51.118;17.058;2023-11-21T01:07:09;3.87;;;2.00;;
23270;SDS011;11804;51.118;17.058;2023-11-21T01:09:37;8.30;;;2.30;;
23270;SDS011;11804;51.118;17.058;2023-11-21T01:12:05;5.13;;;1.83;;
23270;SDS011;11804;51.118;17.058;2023-11-21T01:14:32;3.20;;;1.60;;
23270;SDS011;11804;51.118;17.058;2023-11-21T01:17:01;5.33;;;2.30;;
23270;SDS011;11804;51.118;17.058;2023-11-21T01:19:30;5.47;;;2.53;;
23270;SDS011;11804;51.118;17.058;2023-11-21T01:21:58;5.30;;;2.03;;
23270;SDS011;11804;51.118;17.058;2023-11-21T01:24:25;5.50;;;2.00;;
23270;SDS011;11804;51.118;17.058;2023-11-21T01:26:53;3.90;;;1.77;;
23270;SDS011;11804;51.118;17.058;2023-11-21T01:29:20;3.50;;;1.83;;
23270;SDS011;11804;51.118;17.058;2023-11-21T01:31:48;8.47;;;2.40;;
23270;SDS011;11804;51.118;17.058;2023-11-21T01:34:15;2.53;;;1.57;;
23270;SDS011;11804;51.118;17.058;2023-11-21T01:36:43;4.27;;;2.00;;
23270;SDS011;11804;51.118;17.058;2023-11-21T01:39:12;3.70;;;1.70;;
23270;SDS011;11804;51.118;17.058;2023-11-21T01:41:41;4.10;;;1.97;;
23270;SDS011;11804;51.118;17.058;2023-11-21T01:44:12;6.30;;;2.13;;
23270;SDS011;11804;51.118;17.058;2023-11-21T01:46:39;8.67;;;3.60;;
23270;SDS011;11804;51.118;17.058;2023-11-21T01:49:07;5.73;;;2.33;;
23270;SDS011;11804;51.118;17.058;2023-11-21T01:51:38;10.23;;;3.13;;
23270;SDS011;11804;51.118;17.058;2023-11-21T01:54:07;4.43;;;2.00;;
23270;SDS011;11804;51.118;17.058;2023-11-21T01:56:35;4.10;;;1.50;;
23270;SDS011;11804;51.118;17.058;2023-11-21T01:59:04;3.37;;;1.90;;
23270;SDS011;11804;51.118;17.058;2023-11-21T02:01:33;4.47;;;2.63;;
23270;SDS011;11804;51.118;17.058;2023-11-21T02:04:02;7.33;;;2.80;;
23270;SDS011;11804;51.118;17.058;2023-11-21T02:06:31;8.00;;;2.43;;
23270;SDS011;11804;51.118;17.058;2023-11-21T02:08:59;5.83;;;2.20;;
23270;SDS011;11804;51.118;17.058;2023-11-21T02:11:27;6.47;;;1.67;;
23270;SDS011;11804;51.118;17.058;2023-11-21T02:13:55;5.17;;;2.00;;
23270;SDS011;11804;51.118;17.058;2023-11-21T02:16:24;4.50;;;2.00;;
23270;SDS011;11804;51.118;17.058;2023-11-21T02:18:52;4.37;;;2.30;;
23270;SDS011;11804;51.118;17.058;2023-11-21T02:21:20;4.17;;;1.90;;
23270;SDS011;11804;51.118;17.058;2023-11-21T02:23:48;4.13;;;2.13;;
23270;SDS011;11804;51.118;17.058;2023-11-21T02:26:17;1.53;;;1.13;;
23270;SDS011;11804;51.118;17.058;2023-11-21T02:28:46;3.47;;;1.60;;
23270;SDS011;11804;51.118;17.058;2023-11-21T02:31:13;2.70;;;1.53;;
23270;SDS011;11804;51.118;17.058;2023-11-21T02:33:42;2.63;;;1.60;;
23270;SDS011;11804;51.118;17.058;2023-11-21T02:36:09;3.77;;;2.10;;
23270;SDS011;11804;51.118;17.058;2023-11-21T02:38:37;4.10;;;1.43;;
23270;SDS011;11804;51.118;17.058;2023-11-21T02:41:05;2.83;;;2.10;;
23270;SDS011;11804;51.118;17.058;2023-11-21T02:43:32;3.43;;;2.03;;
23270;SDS011;11804;51.118;17.058;2023-11-21T02:46:00;3.43;;;2.13;;
23270;SDS011;11804;51.118;17.058;2023-11-21T02:48:27;4.97;;;2.67;;
23270;SDS011;11804;51.118;17.058;2023-11-21T02:50:56;5.60;;;2.47;;
23270;SDS011;11804;51.118;17.058;2023-11-21T02:53:24;7.17;;;2.77;;
23270;SDS011;11804;51.118;17.058;2023-11-21T02:55:51;5.07;;;2.63;;
23270;SDS011;11804;51.118;17.058;2023-11-21T02:58:19;7.13;;;2.37;;
23270;SDS011;11804;51.118;17.058;2023-11-21T03:00:47;5.93;;;3.03;;
23270;SDS011;11804;51.118;17.058;2023-11-21T03:03:14;8.20;;;3.10;;
23270;SDS011;11804;51.118;17.058;2023-11-21T03:05:42;4.77;;;2.77;;
23270;SDS011;11804;51.118;17.058;2023-11-21T03:08:10;5.23;;;2.30;;
23270;SDS011;11804;51.118;17.058;2023-11-21T03:10:37;5.20;;;2.30;;
23270;SDS011;11804;51.118;17.058;2023-11-21T03:13:05;4.93;;;2.47;;
23270;SDS011;11804;51.118;17.058;2023-11-21T03:15:32;4.17;;;2.47;;
23270;SDS011;11804;51.118;17.058;2023-11-21T03:18:01;5.67;;;3.00;;
23270;SDS011;11804;51.118;17.058;2023-11-21T03:20:30;6.20;;;2.87;;
23270;SDS011;11804;51.118;17.058;2023-11-21T03:22:57;4.13;;;2.33;;
23270;SDS011;11804;51.118;17.058;2023-11-21T03:25:25;5.17;;;2.17;;
23270;SDS011;11804;51.118;17.058;2023-11-21T03:27:53;4.93;;;2.20;;
23270;SDS011;11804;51.118;17.058;2023-11-21T03:30:21;3.80;;;2.40;;
23270;SDS011;11804;51.118;17.058;2023-11-21T03:32:48;4.80;;;2.67;;
23270;SDS011;11804;51.118;17.058;2023-11-21T03:35:16;4.63;;;2.17;;
23270;SDS011;11804;51.118;17.058;2023-11-21T03:37:45;6.87;;;2.70;;
23270;SDS011;11804;51.118;17.058;2023-11-21T03:40:12;6.23;;;2.90;;
23270;SDS011;11804;51.118;17.058;2023-11-21T03:42:40;7.63;;;3.57;;
23270;SDS011;11804;51.118;17.058;2023-11-21T03:45:08;4.67;;;2.70;;
23270;SDS011;11804;51.118;17.058;2023-11-21T03:47:37;7.77;;;3.30;;
23270;SDS011;11804;51.118;17.058;2023-11-21T03:50:05;6.27;;;2.90;;
23270;SDS011;11804;51.118;17.058;2023-11-21T03:52:34;9.90;;;3.30;;
23270;SDS011;11804;51.118;17.058;2023-11-21T03:55:02;10.17;;;2.80;;
23270;SDS011;11804;51.118;17.058;2023-11-21T03:57:30;5.00;;;2.53;;
23270;SDS011;11804;51.118;17.058;2023-11-21T03:59:57;6.83;;;3.23;;
23270;SDS011;11804;51.118;17.058;2023-11-21T04:02:25;10.10;;;2.73;;
23270;SDS011;11804;51.118;17.058;2023-11-21T04:04:54;4.33;;;2.77;;
23270;SDS011;11804;51.118;17.058;2023-11-21T04:07:22;5.07;;;2.93;;
23270;SDS011;11804;51.118;17.058;2023-11-21T04:09:50;5.03;;;2.60;;
23270;SDS011;11804;51.118;17.058;2023-11-21T04:12:17;6.10;;;2.90;;
23270;SDS011;11804;51.118;17.058;2023-11-21T04:14:45;5.73;;;2.60;;
23270;SDS011;11804;51.118;17.058;2023-11-21T04:17:12;4.73;;;2.60;;
23270;SDS011;11804;51.118;17.058;2023-11-21T04:19:40;6.00;;;2.57;;
23270;SDS011;11804;51.118;17.058;2023-11-21T04:22:07;5.70;;;2.47;;
23270;SDS011;11804;51.118;17.058;2023-11-21T04:24:35;3.90;;;2.50;;
23270;SDS011;11804;51.118;17.058;2023-11-21T04:27:02;6.50;;;2.67;;
23270;SDS011;11804;51.118;17.058;2023-11-21T04:29:30;6.60;;;2.43;;
23270;SDS011;11804;51.118;17.058;2023-11-21T04:31:58;3.13;;;2.20;;
23270;SDS011;11804;51.118;17.058;2023-11-21T04:34:25;5.10;;;2.63;;
23270;SDS011;11804;51.118;17.058;2023-11-21T04:36:53;5.53;;;1.93;;
23270;SDS011;11804;51.118;17.058;2023-11-21T04:39:21;4.87;;;2.03;;
23270;SDS011;11804;51.118;17.058;2023-11-21T04:41:48;4.60;;;2.17;;
23270;SDS011;11804;51.118;17.058;2023-11-21T04:44:16;7.27;;;1.87;;
23270;SDS011;11804;51.118;17.058;2023-11-21T04:46:44;4.07;;;2.30;;
23270;SDS011;11804;51.118;17.058;2023-11-21T04:49:11;6.97;;;2.37;;
23270;SDS011;11804;51.118;17.058;2023-11-21T04:51:39;5.47;;;2.73;;
23270;SDS011;11804;51.118;17.058;2023-11-21T04:54:06;2.73;;;1.70;;
23270;SDS011;11804;51.118;17.058;2023-11-21T04:56:35;4.80;;;2.40;;
23270;SDS011;11804;51.118;17.058;2023-11-21T04:59:02;5.17;;;2.23;;
23270;SDS011;11804;51.118;17.058;2023-11-21T05:01:30;3.60;;;1.70;;
23270;SDS011;11804;51.118;17.058;2023-11-21T05:03:58;5.50;;;2.40;;
23270;SDS011;11804;51.118;17.058;2023-11-21T05:06:26;4.27;;;2.30;;
23270;SDS011;11804;51.118;17.058;2023-11-21T05:08:53;10.73;;;3.27;;
23270;SDS011;11804;51.118;17.058;2023-11-21T05:11:25;5.67;;;3.27;;
23270;SDS011;11804;51.118;17.058;2023-11-21T05:13:55;6.00;;;3.30;;
23270;SDS011;11804;51.118;17.058;2023-11-21T05:16:25;4.40;;;2.57;;
23270;SDS011;11804;51.118;17.058;2023-11-21T05:18:56;5.50;;;2.83;;
23270;SDS011;11804;51.118;17.058;2023-11-21T05:21:27;10.47;;;3.23;;
23270;SDS011;11804;51.118;17.058;2023-11-21T05:23:58;6.67;;;3.03;;
23270;SDS011;11804;51.118;17.058;2023-11-21T05:26:26;7.60;;;3.20;;
23270;SDS011;11804;51.118;17.058;2023-11-21T05:28:54;7.93;;;3.23;;
23270;SDS011;11804;51.118;17.058;2023-11-21T05:31:22;6.50;;;3.93;;
23270;SDS011;11804;51.118;17.058;2023-11-21T05:33:49;8.60;;;4.10;;
23270;SDS011;11804;51.118;17.058;2023-11-21T05:36:17;8.00;;;4.10;;
23270;SDS011;11804;51.118;17.058;2023-11-21T05:38:45;9.23;;;4.33;;
23270;SDS011;11804;51.118;17.058;2023-11-21T05:41:14;9.80;;;4.50;;
23270;SDS011;11804;51.118;17.058;2023-11-21T05:43:42;9.40;;;3.70;;
23270;SDS011;11804;51.118;17.058;2023-11-21T05:46:10;7.60;;;3.57;;
23270;SDS011;11804;51.118;17.058;2023-11-21T05:48:39;7.07;;;3.97;;
23270;SDS011;11804;51.118;17.058;2023-11-21T05:51:06;6.27;;;3.27;;
23270;SDS011;11804;51.118;17.058;2023-11-21T05:53:34;9.53;;;3.17;;
23270;SDS011;11804;51.118;17.058;2023-11-21T05:56:02;7.17;;;3.27;;
23270;SDS011;11804;51.118;17.058;2023-11-21T05:58:30;6.80;;;3.30;;
23270;SDS011;11804;51.118;17.058;2023-11-21T06:00:57;7.63;;;2.93;;
23270;SDS011;11804;51.118;17.058;2023-11-21T06:03:25;5.60;;;2.57;;
23270;SDS011;11804;51.118;17.058;2023-11-21T06:05:53;5.47;;;2.73;;
23270;SDS011;11804;51.118;17.058;2023-11-21T06:08:20;9.40;;;3.40;;
23270;SDS011;11804;51.118;17.058;2023-11-21T06:10:48;4.87;;;2.40;;
23270;SDS011;11804;51.118;17.058;2023-11-21T06:13:15;8.67;;;3.10;;
23270;SDS011;11804;51.118;17.058;2023-11-21T06:15:44;8.57;;;3.67;;
23270;SDS011;11804;51.118;17.058;2023-11-21T06:18:12;5.37;;;3.00;;
23270;SDS011;11804;51.118;17.058;2023-11-21T06:20:40;6.30;;;2.83;;
23270;SDS011;11804;51.118;17.058;2023-11-21T06:23:07;5.83;;;3.03;;
23270;SDS011;11804;51.118;17.058;2023-11-21T06:25:35;6.70;;;2.57;;
23270;SDS011;11804;51.118;17.058;2023-11-21T06:28:03;5.40;;;3.00;;
23270;SDS011;11804;51.118;17.058;2023-11-21T06:30:31;3.93;;;2.07;;
23270;SDS011;11804;51.118;17.058;2023-11-21T06:32:58;6.33;;;2.90;;
23270;SDS011;11804;51.118;17.058;2023-11-21T06:35:26;4.60;;;2.73;;
23270;SDS011;11804;51.118;17.058;2023-11-21T06:37:56;5.07;;;2.87;;
23270;SDS011;11804;51.118;17.058;2023-11-21T06:40:23;9.17;;;3.27;;
23270;SDS011;11804;51.118;17.058;2023-11-21T06:42:51;7.13;;;3.70;;
23270;SDS011;11804;51.118;17.058;2023-11-21T06:45:18;7.73;;;4.17;;
23270;SDS011;11804;51.118;17.058;2023-11-21T06:47:47;6.03;;;3.10;;
23270;SDS011;11804;51.118;17.058;2023-11-21T06:50:14;6.87;;;3.17;;
23270;SDS011;11804;51.118;17.058;2023-11-21T06:52:42;6.90;;;2.77;;
23270;SDS011;11804;51.118;17.058;2023-11-21T06:55:09;5.20;;;2.73;;
23270;SDS011;11804;51.118;17.058;2023-11-21T06:57:37;6.17;;;3.17;;
23270;SDS011;11804;51.118;17.058;2023-11-21T07:00:05;6.07;;;2.90;;
23270;SDS011;11804;51.118;17.058;2023-11-21T07:02:34;5.60;;;3.57;;
23270;SDS011;11804;51.118;17.058;2023-11-21T07:05:02;5.47;;;3.10;;
23270;SDS011;11804;51.118;17.058;2023-11-21T07:07:31;6.67;;;2.93;;
23270;SDS011;11804;51.118;17.058;2023-11-21T07:10:00;4.77;;;2.30;;
23270;SDS011;11804;51.118;17.058;2023-11-21T07:14:57;9.00;;;2.87;;
23270;SDS011;11804;51.118;17.058;2023-11-21T07:17:25;6.53;;;3.13;;
23270;SDS011;11804;51.118;17.058;2023-11-21T07:19:53;7.20;;;2.80;;
23270;SDS011;11804;51.118;17.058;2023-11-21T07:22:21;6.93;;;2.83;;
23270;SDS011;11804;51.118;17.058;2023-11-21T07:24:49;6.27;;;3.17;;
23270;SDS011;11804;51.118;17.058;2023-11-21T07:27:19;4.63;;;2.53;;
23270;SDS011;11804;51.118;17.058;2023-11-21T07:29:46;8.23;;;3.80;;
23270;SDS011;11804;51.118;17.058;2023-11-21T07:32:14;6.53;;;3.73;;
23270;SDS011;11804;51.118;17.058;2023-11-21T07:34:42;6.23;;;3.33;;
23270;SDS011;11804;51.118;17.058;2023-11-21T07:37:09;8.27;;;3.30;;
23270;SDS011;11804;51.118;17.058;2023-11-21T07:39:37;6.63;;;3.43;;
23270;SDS011;11804;51.118;17.058;2023-11-21T07:42:06;6.73;;;3.00;;
23270;SDS011;11804;51.118;17.058;2023-11-21T07:44:33;4.53;;;2.90;;
23270;SDS011;11804;51.118;17.058;2023-11-21T07:47:01;5.17;;;2.60;;
23270;SDS011;11804;51.118;17.058;2023-11-21T07:49:30;5.47;;;3.57;;
23270;SDS011;11804;51.118;17.058;2023-11-21T07:51:58;4.73;;;2.60;;
23270;SDS011;11804;51.118;17.058;2023-11-21T07:54:25;11.40;;;3.87;;
23270;SDS011;11804;51.118;17.058;2023-11-21T07:56:53;7.97;;;3.23;;
23270;SDS011;11804;51.118;17.058;2023-11-21T07:59:21;5.00;;;2.60;;
23270;SDS011;11804;51.118;17.058;2023-11-21T08:01:48;5.63;;;2.70;;
23270;SDS011;11804;51.118;17.058;2023-11-21T08:04:16;6.27;;;2.93;;
23270;SDS011;11804;51.118;17.058;2023-11-21T08:06:44;6.07;;;3.27;;
23270;SDS011;11804;51.118;17.058;2023-11-21T08:09:11;5.60;;;2.87;;
23270;SDS011;11804;51.118;17.058;2023-11-21T08:11:39;5.67;;;3.50;;
23270;SDS011;11804;51.118;17.058;2023-11-21T08:14:06;7.23;;;3.13;;
23270;SDS011;11804;51.118;17.058;2023-11-21T08:16:34;7.30;;;3.60;;
23270;SDS011;11804;51.118;17.058;2023-11-21T08:19:02;7.07;;;3.83;;
23270;SDS011;11804;51.118;17.058;2023-11-21T08:21:29;5.60;;;3.07;;
23270;SDS011;11804;51.118;17.058;2023-11-21T08:23:57;6.97;;;3.00;;
23270;SDS011;11804;51.118;17.058;2023-11-21T08:26:26;6.47;;;3.57;;
23270;SDS011;11804;51.118;17.058;2023-11-21T08:28:54;5.97;;;2.90;;
23270;SDS011;11804;51.118;17.058;2023-11-21T08:31:25;7.97;;;2.50;;
23270;SDS011;11804;51.118;17.058;2023-11-21T08:33:53;7.43;;;3.17;;
23270;SDS011;11804;51.118;17.058;2023-11-21T08:36:22;8.47;;;4.17;;
23270;SDS011;11804;51.118;17.058;2023-11-21T08:38:50;10.17;;;3.43;;
23270;SDS011;11804;51.118;17.058;2023-11-21T08:41:18;6.27;;;3.13;;
23270;SDS011;11804;51.118;17.058;2023-11-21T08:43:53;7.33;;;3.77;;
23270;SDS011;11804;51.118;17.058;2023-11-21T08:46:18;8.73;;;3.73;;
23270;SDS011;11804;51.118;17.058;2023-11-21T08:48:46;8.77;;;3.90;;
23270;SDS011;11804;51.118;17.058;2023-11-21T08:51:14;7.60;;;4.03;;
23270;SDS011;11804;51.118;17.058;2023-11-21T08:53:41;5.23;;;3.30;;
23270;SDS011;11804;51.118;17.058;2023-11-21T08:56:12;9.43;;;4.37;;
23270;SDS011;11804;51.118;17.058;2023-11-21T08:58:40;6.43;;;3.17;;
23270;SDS011;11804;51.118;17.058;2023-11-21T09:01:07;5.90;;;3.03;;
23270;SDS011;11804;51.118;17.058;2023-11-21T09:03:35;5.43;;;3.07;;
23270;SDS011;11804;51.118;17.058;2023-11-21T09:06:03;11.37;;;3.70;;
23270;SDS011;11804;51.118;17.058;2023-11-21T09:08:31;6.40;;;3.30;;
23270;SDS011;11804;51.118;17.058;2023-11-21T09:10:58;5.17;;;2.97;;
23270;SDS011;11804;51.118;17.058;2023-11-21T09:13:26;8.17;;;3.33;;
23270;SDS011;11804;51.118;17.058;2023-11-21T09:15:55;6.37;;;3.03;;
23270;SDS011;11804;51.118;17.058;2023-11-21T09:18:23;8.47;;;3.50;;
23270;SDS011;11804;51.118;17.058;2023-11-21T09:20:50;4.07;;;2.70;;
23270;SDS011;11804;51.118;17.058;2023-11-21T09:23:18;5.67;;;3.20;;
23270;SDS011;11804;51.118;17.058;2023-11-21T09:25:46;5.83;;;2.80;;
23270;SDS011;11804;51.118;17.058;2023-11-21T09:28:15;7.63;;;3.30;;
23270;SDS011;11804;51.118;17.058;2023-11-21T09:30:44;6.07;;;3.30;;
23270;SDS011;11804;51.118;17.058;2023-11-21T09:33:12;5.47;;;2.97;;
23270;SDS011;11804;51.118;17.058;2023-11-21T09:35:41;9.47;;;4.53;;
23270;SDS011;11804;51.118;17.058;2023-11-21T09:38:09;8.53;;;3.27;;
23270;SDS011;11804;51.118;17.058;2023-11-21T09:40:37;6.10;;;3.20;;
23270;SDS011;11804;51.118;17.058;2023-11-21T09:43:09;7.13;;;2.43;;
23270;SDS011;11804;51.118;17.058;2023-11-21T09:45:40;7.00;;;3.93;;
23270;SDS011;11804;51.118;17.058;2023-11-21T09:48:09;7.37;;;2.80;;
23270;SDS011;11804;51.118;17.058;2023-11-21T09:50:39;4.70;;;2.43;;
23270;SDS011;11804;51.118;17.058;2023-11-21T09:55:48;4.97;;;2.50;;
23270;SDS011;11804;51.118;17.058;2023-11-21T09:58:18;5.13;;;2.57;;
23270;SDS011;11804;51.118;17.058;2023-11-21T10:00:49;4.03;;;2.13;;
23270;SDS011;11804;51.118;17.058;2023-11-21T10:03:19;5.60;;;2.47;;
23270;SDS011;11804;51.118;17.058;2023-11-21T10:05:47;5.07;;;2.70;;
23270;SDS011;11804;51.118;17.058;2023-11-21T10:08:17;4.70;;;2.20;;
23270;SDS011;11804;51.118;17.058;2023-11-21T10:10:47;5.37;;;2.90;;
23270;SDS011;11804;51.118;17.058;2023-11-21T10:13:17;3.97;;;2.20;;
23270;SDS011;11804;51.118;17.058;2023-11-21T10:15:49;4.90;;;2.70;;
23270;SDS011;11804;51.118;17.058;2023-11-21T10:18:17;4.10;;;2.50;;
23270;SDS011;11804;51.118;17.058;2023-11-21T10:20:45;4.27;;;2.43;;
23270;SDS011;11804;51.118;17.058;2023-11-21T10:23:14;5.80;;;2.77;;
23270;SDS011;11804;51.118;17.058;2023-11-21T10:25:42;5.10;;;2.37;;
23270;SDS011;11804;51.118;17.058;2023-11-21T10:28:09;5.63;;;3.03;;
23270;SDS011;11804;51.118;17.058;2023-11-21T10:30:37;5.67;;;2.40;;
23270;SDS011;11804;51.118;17.058;2023-11-21T10:33:06;4.47;;;2.20;;
23270;SDS011;11804;51.118;17.058;2023-11-21T10:35:44;4.53;;;2.30;;
23270;SDS011;11804;51.118;17.058;2023-11-21T10:38:14;7.70;;;3.13;;
23270;SDS011;11804;51.118;17.058;2023-11-21T10:40:41;7.60;;;4.23;;
23270;SDS011;11804;51.118;17.058;2023-11-21T10:43:10;9.17;;;4.43;;
23270;SDS011;11804;51.118;17.058;2023-11-21T10:45:41;8.77;;;4.67;;
23270;SDS011;11804;51.118;17.058;2023-11-21T10:48:10;10.20;;;5.53;;
23270;SDS011;11804;51.118;17.058;2023-11-21T10:50:43;10.67;;;5.20;;
23270;SDS011;11804;51.118;17.058;2023-11-21T10:53:12;12.53;;;5.23;;
23270;SDS011;11804;51.118;17.058;2023-11-21T10:55:40;9.80;;;4.73;;
23270;SDS011;11804;51.118;17.058;2023-11-21T10:58:11;10.03;;;4.87;;
23270;SDS011;11804;51.118;17.058;2023-11-21T11:00:40;10.57;;;5.53;;
23270;SDS011;11804;51.118;17.058;2023-11-21T11:03:11;14.10;;;5.30;;
23270;SDS011;11804;51.118;17.058;2023-11-21T11:05:40;11.33;;;5.07;;
23270;SDS011;11804;51.118;17.058;2023-11-21T11:08:11;9.77;;;4.47;;
23270;SDS011;11804;51.118;17.058;2023-11-21T11:10:43;12.83;;;5.07;;
23270;SDS011;11804;51.118;17.058;2023-11-21T11:13:15;12.93;;;5.50;;
23270;SDS011;11804;51.118;17.058;2023-11-21T11:15:43;13.07;;;6.70;;
23270;SDS011;11804;51.118;17.058;2023-11-21T11:18:15;11.37;;;5.13;;
23270;SDS011;11804;51.118;17.058;2023-11-21T11:20:43;10.10;;;5.23;;
23270;SDS011;11804;51.118;17.058;2023-11-21T11:23:30;13.27;;;4.83;;
23270;SDS011;11804;51.118;17.058;2023-11-21T11:26:20;9.80;;;4.50;;
23270;SDS011;11804;51.118;17.058;2023-11-21T11:31:37;11.03;;;5.70;;
23270;SDS011;11804;51.118;17.058;2023-11-21T11:34:12;15.07;;;5.90;;
23270;SDS011;11804;51.118;17.058;2023-11-21T11:36:44;14.37;;;6.20;;
23270;SDS011;11804;51.118;17.058;2023-11-21T11:39:31;18.43;;;5.80;;
23270;SDS011;11804;51.118;17.058;2023-11-21T11:42:06;11.60;;;4.77;;
23270;SDS011;11804;51.118;17.058;2023-11-21T11:47:16;11.07;;;4.93;;
23270;SDS011;11804;51.118;17.058;2023-11-21T11:52:37;13.73;;;5.37;;
23270;SDS011;11804;51.118;17.058;2023-11-21T11:55:10;11.40;;;5.43;;
23270;SDS011;11804;51.118;17.058;2023-11-21T11:57:40;13.93;;;6.30;;
23270;SDS011;11804;51.118;17.058;2023-11-21T12:02:53;13.73;;;6.00;;
23270;SDS011;11804;51.118;17.058;2023-11-21T12:05:26;11.77;;;5.60;;
23270;SDS011;11804;51.118;17.058;2023-11-21T12:07:57;14.33;;;5.97;;
23270;SDS011;11804;51.118;17.058;2023-11-21T12:10:31;12.30;;;5.37;;
23270;SDS011;11804;51.118;17.058;2023-11-21T12:13:01;11.00;;;5.33;;
23270;SDS011;11804;51.118;17.058;2023-11-21T12:15:33;13.03;;;4.90;;
23270;SDS011;11804;51.118;17.058;2023-11-21T12:18:01;9.67;;;5.13;;
23270;SDS011;11804;51.118;17.058;2023-11-21T12:20:30;9.43;;;4.70;;
23270;SDS011;11804;51.118;17.058;2023-11-21T12:22:59;10.63;;;5.23;;
23270;SDS011;11804;51.118;17.058;2023-11-21T12:25:28;10.80;;;4.87;;
23270;SDS011;11804;51.118;17.058;2023-11-21T12:27:58;9.40;;;4.20;;
23270;SDS011;11804;51.118;17.058;2023-11-21T12:30:29;9.20;;;4.10;;
23270;SDS011;11804;51.118;17.058;2023-11-21T12:32:58;9.47;;;4.30;;
23270;SDS011;11804;51.118;17.058;2023-11-21T12:35:27;8.20;;;4.27;;
23270;SDS011;11804;51.118;17.058;2023-11-21T12:37:58;6.90;;;3.63;;
23270;SDS011;11804;51.118;17.058;2023-11-21T12:40:28;9.23;;;4.00;;
23270;SDS011;11804;51.118;17.058;2023-11-21T12:42:57;9.80;;;4.33;;
23270;SDS011;11804;51.118;17.058;2023-11-21T12:45:27;11.37;;;4.30;;
23270;SDS011;11804;51.118;17.058;2023-11-21T12:48:00;11.03;;;3.83;;
23270;SDS011;11804;51.118;17.058;2023-11-21T12:50:31;7.70;;;3.53;;
23270;SDS011;11804;51.118;17.058;2023-11-21T12:53:03;6.57;;;3.13;;
23270;SDS011;11804;51.118;17.058;2023-11-21T12:55:34;7.27;;;3.93;;
23270;SDS011;11804;51.118;17.058;2023-11-21T12:58:03;4.40;;;2.90;;
23270;SDS011;11804;51.118;17.058;2023-11-21T13:00:38;8.97;;;3.87;;
23270;SDS011;11804;51.118;17.058;2023-11-21T13:03:08;7.77;;;3.80;;
23270;SDS011;11804;51.118;17.058;2023-11-21T13:05:40;5.77;;;3.20;;
23270;SDS011;11804;51.118;17.058;2023-11-21T13:08:11;8.67;;;3.80;;
23270;SDS011;11804;51.118;17.058;2023-11-21T13:10:42;8.20;;;4.40;;
23270;SDS011;11804;51.118;17.058;2023-11-21T13:13:13;9.60;;;3.40;;
23270;SDS011;11804;51.118;17.058;2023-11-21T13:16:02;9.37;;;2.90;;
23270;SDS011;11804;51.118;17.058;2023-11-21T13:18:25;8.70;;;3.63;;
23270;SDS011;11804;51.118;17.058;2023-11-21T13:20:54;5.77;;;2.90;;
23270;SDS011;11804;51.118;17.058;2023-11-21T13:23:25;5.30;;;2.33;;
23270;SDS011;11804;51.118;17.058;2023-11-21T13:25:56;6.17;;;3.30;;
23270;SDS011;11804;51.118;17.058;2023-11-21T13:28:25;6.90;;;3.17;;
23270;SDS011;11804;51.118;17.058;2023-11-21T13:30:54;7.63;;;3.33;;
23270;SDS011;11804;51.118;17.058;2023-11-21T13:33:22;5.80;;;2.70;;
23270;SDS011;11804;51.118;17.058;2023-11-21T13:35:54;6.97;;;2.53;;
23270;SDS011;11804;51.118;17.058;2023-11-21T13:38:23;4.83;;;2.73;;
23270;SDS011;11804;51.118;17.058;2023-11-21T13:40:54;5.20;;;2.87;;
23270;SDS011;11804;51.118;17.058;2023-11-21T13:43:24;6.53;;;2.60;;
23270;SDS011;11804;51.118;17.058;2023-11-21T13:45:54;3.90;;;2.13;;
23270;SDS011;11804;51.118;17.058;2023-11-21T13:48:26;4.33;;;2.47;;
23270;SDS011;11804;51.118;17.058;2023-11-21T13:51:10;5.23;;;2.73;;
23270;SDS011;11804;51.118;17.058;2023-11-21T13:53:44;8.27;;;2.63;;
23270;SDS011;11804;51.118;17.058;2023-11-21T13:56:20;5.60;;;2.53;;
23270;SDS011;11804;51.118;17.058;2023-11-21T13:58:52;4.60;;;2.60;;
23270;SDS011;11804;51.118;17.058;2023-11-21T14:01:22;6.53;;;3.17;;
23270;SDS011;11804;51.118;17.058;2023-11-21T14:04:02;5.00;;;2.20;;
23270;SDS011;11804;51.118;17.058;2023-11-21T14:06:45;5.63;;;2.87;;
23270;SDS011;11804;51.118;17.058;2023-11-21T14:09:19;4.23;;;2.20;;
23270;SDS011;11804;51.118;17.058;2023-11-21T14:11:55;3.67;;;2.27;;
23270;SDS011;11804;51.118;17.058;2023-11-21T14:14:25;5.47;;;2.83;;
23270;SDS011;11804;51.118;17.058;2023-11-21T14:16:54;4.20;;;2.53;;
23270;SDS011;11804;51.118;17.058;2023-11-21T14:19:22;4.40;;;2.77;;
23270;SDS011;11804;51.118;17.058;2023-11-21T14:21:52;8.67;;;3.70;;
23270;SDS011;11804;51.118;17.058;2023-11-21T14:24:19;9.03;;;2.93;;
23270;SDS011;11804;51.118;17.058;2023-11-21T14:26:48;8.93;;;4.47;;
23270;SDS011;11804;51.118;17.058;2023-11-21T14:29:17;6.60;;;4.00;;
23270;SDS011;11804;51.118;17.058;2023-11-21T14:31:46;7.47;;;3.43;;
23270;SDS011;11804;51.118;17.058;2023-11-21T14:34:14;7.03;;;2.90;;
23270;SDS011;11804;51.118;17.058;2023-11-21T14:36:42;5.43;;;2.57;;
23270;SDS011;11804;51.118;17.058;2023-11-21T14:39:11;5.80;;;2.93;;
23270;SDS011;11804;51.118;17.058;2023-11-21T14:41:40;5.77;;;3.03;;
23270;SDS011;11804;51.118;17.058;2023-11-21T14:44:09;7.00;;;3.30;;
23270;SDS011;11804;51.118;17.058;2023-11-21T14:46:38;5.83;;;2.63;;
23270;SDS011;11804;51.118;17.058;2023-11-21T14:49:09;7.23;;;3.33;;
23270;SDS011;11804;51.118;17.058;2023-11-21T14:51:39;10.97;;;4.23;;
23270;SDS011;11804;51.118;17.058;2023-11-21T14:54:08;6.60;;;3.63;;
23270;SDS011;11804;51.118;17.058;2023-11-21T14:56:35;7.10;;;3.47;;
23270;SDS011;11804;51.118;17.058;2023-11-21T14:59:04;5.57;;;2.90;;